sensor_id;sensor_type;location;lat;lon;timestamp;P1;durP1;ratioP1;P2;durP2;ratioP2
5058;SDS011;2548;52.050;11.036;2022-10-31T00:00:42;7.82;;;7.20;;
5058;SDS011;2548;52.050;11.036;2022-10-31T00:03:10;9.38;;;8.18;;
5058;SDS011;2548;52.050;11.036;2022-10-31T00:05:41;8.50;;;6.97;;
5058;SDS011;2548;52.050;11.036;2022-10-31T00:08:09;10.02;;;8.00;;
5058;SDS011;2548;52.050;11.036;2022-10-31T00:10:37;9.50;;;7.93;;
5058;SDS011;2548;52.050;11.036;2022-10-31T00:13:05;13.50;;;8.30;;
5058;SDS011;2548;52.050;11.036;2022-10-31T00:15:33;18.80;;;8.65;;
5058;SDS011;2548;52.050;11.036;2022-10-31T00:18:00;15.82;;;9.55;;
5058;SDS011;2548;52.050;11.036;2022-10-31T00:20:28;17.45;;;9.30;;
5058;SDS011;2548;52.050;11.036;2022-10-31T00:22:58;11.40;;;8.80;;
5058;SDS011;2548;52.050;11.036;2022-10-31T00:25:26;9.27;;;7.88;;
5058;SDS011;2548;52.050;11.036;2022-10-31T00:27:55;12.05;;;7.60;;
5058;SDS011;2548;52.050;11.036;2022-10-31T00:30:22;8.52;;;7.60;;
5058;SDS011;2548;52.050;11.036;2022-10-31T00:32:50;9.80;;;7.03;;
5058;SDS011;2548;52.050;11.036;2022-10-31T00:35:17;12.25;;;7.70;;
5058;SDS011;2548;52.050;11.036;2022-10-31T00:37:45;14.82;;;6.78;;
5058;SDS011;2548;52.050;11.036;2022-10-31T00:40:13;8.60;;;6.60;;
5058;SDS011;2548;52.050;11.036;2022-10-31T00:42:41;12.98;;;7.07;;
5058;SDS011;2548;52.050;11.036;2022-10-31T00:45:09;10.82;;;7.38;;
5058;SDS011;2548;52.050;11.036;2022-10-31T00:47:36;12.95;;;8.15;;
5058;SDS011;2548;52.050;11.036;2022-10-31T00:50:04;19.92;;;9.65;;
5058;SDS011;2548;52.050;11.036;2022-10-31T00:52:32;13.07;;;8.25;;
5058;SDS011;2548;52.050;11.036;2022-10-31T00:55:00;14.93;;;9.10;;
5058;SDS011;2548;52.050;11.036;2022-10-31T00:57:29;10.40;;;9.05;;
5058;SDS011;2548;52.050;11.036;2022-10-31T00:59:56;13.68;;;9.00;;
5058;SDS011;2548;52.050;11.036;2022-10-31T01:02:24;21.05;;;9.10;;
5058;SDS011;2548;52.050;11.036;2022-10-31T01:04:51;15.63;;;9.43;;
5058;SDS011;2548;52.050;11.036;2022-10-31T01:07:20;15.48;;;9.77;;
5058;SDS011;2548;52.050;11.036;2022-10-31T01:09:47;14.13;;;9.70;;
5058;SDS011;2548;52.050;11.036;2022-10-31T01:12:15;14.48;;;11.00;;
5058;SDS011;2548;52.050;11.036;2022-10-31T01:14:44;14.93;;;10.23;;
5058;SDS011;2548;52.050;11.036;2022-10-31T01:17:11;13.15;;;10.50;;
5058;SDS011;2548;52.050;11.036;2022-10-31T01:19:39;18.88;;;10.02;;
5058;SDS011;2548;52.050;11.036;2022-10-31T01:22:06;16.95;;;11.77;;
5058;SDS011;2548;52.050;11.036;2022-10-31T01:24:34;19.52;;;10.63;;
5058;SDS011;2548;52.050;11.036;2022-10-31T01:27:01;16.77;;;10.80;;
5058;SDS011;2548;52.050;11.036;2022-10-31T01:29:33;16.55;;;10.65;;
5058;SDS011;2548;52.050;11.036;2022-10-31T01:32:01;20.98;;;11.60;;
5058;SDS011;2548;52.050;11.036;2022-10-31T01:34:29;19.13;;;11.73;;
5058;SDS011;2548;52.050;11.036;2022-10-31T01:36:56;20.30;;;11.13;;
5058;SDS011;2548;52.050;11.036;2022-10-31T01:39:24;17.83;;;11.52;;
5058;SDS011;2548;52.050;11.036;2022-10-31T01:41:51;22.83;;;12.52;;
5058;SDS011;2548;52.050;11.036;2022-10-31T01:47:20;18.17;;;11.02;;
5058;SDS011;2548;52.050;11.036;2022-10-31T01:49:59;17.15;;;11.55;;
5058;SDS011;2548;52.050;11.036;2022-10-31T01:52:30;18.63;;;10.57;;
5058;SDS011;2548;52.050;11.036;2022-10-31T01:55:00;15.57;;;10.55;;
5058;SDS011;2548;52.050;11.036;2022-10-31T01:57:31;23.17;;;10.23;;
5058;SDS011;2548;52.050;11.036;2022-10-31T02:00:01;18.88;;;9.77;;
5058;SDS011;2548;52.050;11.036;2022-10-31T02:02:40;17.17;;;9.65;;
5058;SDS011;2548;52.050;11.036;2022-10-31T02:05:09;13.45;;;9.93;;
5058;SDS011;2548;52.050;11.036;2022-10-31T02:07:43;24.30;;;9.30;;
5058;SDS011;2548;52.050;11.036;2022-10-31T02:10:15;10.00;;;8.10;;
5058;SDS011;2548;52.050;11.036;2022-10-31T02:12:44;10.82;;;8.27;;
5058;SDS011;2548;52.050;11.036;2022-10-31T02:15:14;14.38;;;8.30;;
5058;SDS011;2548;52.050;11.036;2022-10-31T02:17:44;17.60;;;8.73;;
5058;SDS011;2548;52.050;11.036;2022-10-31T02:20:13;14.40;;;9.48;;
5058;SDS011;2548;52.050;11.036;2022-10-31T02:22:48;13.85;;;10.13;;
5058;SDS011;2548;52.050;11.036;2022-10-31T02:25:46;17.50;;;10.18;;
5058;SDS011;2548;52.050;11.036;2022-10-31T02:28:32;15.32;;;10.45;;
5058;SDS011;2548;52.050;11.036;2022-10-31T02:31:16;23.40;;;9.35;;
5058;SDS011;2548;52.050;11.036;2022-10-31T02:33:52;11.75;;;9.70;;
5058;SDS011;2548;52.050;11.036;2022-10-31T02:36:23;17.08;;;10.23;;
5058;SDS011;2548;52.050;11.036;2022-10-31T02:38:58;13.40;;;10.18;;
5058;SDS011;2548;52.050;11.036;2022-10-31T02:41:44;12.73;;;10.18;;
5058;SDS011;2548;52.050;11.036;2022-10-31T02:44:16;12.88;;;9.77;;
5058;SDS011;2548;52.050;11.036;2022-10-31T02:46:51;15.27;;;10.50;;
5058;SDS011;2548;52.050;11.036;2022-10-31T02:49:32;19.80;;;10.25;;
5058;SDS011;2548;52.050;11.036;2022-10-31T02:52:12;14.38;;;9.85;;
5058;SDS011;2548;52.050;11.036;2022-10-31T02:54:40;17.58;;;10.45;;
5058;SDS011;2548;52.050;11.036;2022-10-31T02:57:09;20.15;;;10.73;;
5058;SDS011;2548;52.050;11.036;2022-10-31T02:59:37;29.17;;;10.40;;
5058;SDS011;2548;52.050;11.036;2022-10-31T03:02:20;13.10;;;9.18;;
5058;SDS011;2548;52.050;11.036;2022-10-31T03:05:11;13.93;;;10.38;;
5058;SDS011;2548;52.050;11.036;2022-10-31T03:08:06;23.38;;;9.60;;
5058;SDS011;2548;52.050;11.036;2022-10-31T03:10:41;19.80;;;8.95;;
5058;SDS011;2548;52.050;11.036;2022-10-31T03:13:14;15.20;;;9.45;;
5058;SDS011;2548;52.050;11.036;2022-10-31T03:15:49;18.73;;;9.20;;
5058;SDS011;2548;52.050;11.036;2022-10-31T03:18:21;19.95;;;9.63;;
5058;SDS011;2548;52.050;11.036;2022-10-31T03:20:55;19.45;;;9.85;;
5058;SDS011;2548;52.050;11.036;2022-10-31T03:23:25;13.98;;;8.88;;
5058;SDS011;2548;52.050;11.036;2022-10-31T03:25:54;14.43;;;8.48;;
5058;SDS011;2548;52.050;11.036;2022-10-31T03:28:27;21.20;;;9.32;;
5058;SDS011;2548;52.050;11.036;2022-10-31T03:30:56;21.88;;;9.65;;
5058;SDS011;2548;52.050;11.036;2022-10-31T03:33:28;14.50;;;8.18;;
5058;SDS011;2548;52.050;11.036;2022-10-31T03:35:58;11.55;;;9.07;;
5058;SDS011;2548;52.050;11.036;2022-10-31T03:38:29;9.45;;;8.43;;
5058;SDS011;2548;52.050;11.036;2022-10-31T03:40:59;22.55;;;9.55;;
5058;SDS011;2548;52.050;11.036;2022-10-31T03:43:32;12.55;;;8.55;;
5058;SDS011;2548;52.050;11.036;2022-10-31T03:46:04;12.18;;;8.80;;
5058;SDS011;2548;52.050;11.036;2022-10-31T03:48:34;17.45;;;9.07;;
5058;SDS011;2548;52.050;11.036;2022-10-31T03:51:05;21.02;;;8.98;;
5058;SDS011;2548;52.050;11.036;2022-10-31T03:53:38;18.65;;;10.00;;
5058;SDS011;2548;52.050;11.036;2022-10-31T03:56:13;16.83;;;9.50;;
5058;SDS011;2548;52.050;11.036;2022-10-31T03:58:47;11.75;;;8.05;;
5058;SDS011;2548;52.050;11.036;2022-10-31T04:01:17;16.85;;;8.63;;
5058;SDS011;2548;52.050;11.036;2022-10-31T04:03:48;17.33;;;8.95;;
5058;SDS011;2548;52.050;11.036;2022-10-31T04:06:16;19.52;;;10.10;;
5058;SDS011;2548;52.050;11.036;2022-10-31T04:08:46;11.40;;;8.60;;
5058;SDS011;2548;52.050;11.036;2022-10-31T04:11:19;16.08;;;9.82;;
5058;SDS011;2548;52.050;11.036;2022-10-31T04:14:10;10.23;;;7.65;;
5058;SDS011;2548;52.050;11.036;2022-10-31T04:16:39;16.48;;;7.53;;
5058;SDS011;2548;52.050;11.036;2022-10-31T04:19:09;9.50;;;7.63;;
5058;SDS011;2548;52.050;11.036;2022-10-31T04:21:37;13.85;;;8.02;;
5058;SDS011;2548;52.050;11.036;2022-10-31T04:24:04;14.25;;;8.77;;
5058;SDS011;2548;52.050;11.036;2022-10-31T04:26:33;15.13;;;8.23;;
5058;SDS011;2548;52.050;11.036;2022-10-31T04:29:00;16.40;;;8.02;;
5058;SDS011;2548;52.050;11.036;2022-10-31T04:31:28;16.02;;;8.77;;
5058;SDS011;2548;52.050;11.036;2022-10-31T04:33:56;12.55;;;8.10;;
5058;SDS011;2548;52.050;11.036;2022-10-31T04:36:25;16.73;;;7.88;;
5058;SDS011;2548;52.050;11.036;2022-10-31T04:38:53;8.90;;;7.55;;
5058;SDS011;2548;52.050;11.036;2022-10-31T04:41:44;14.13;;;8.45;;
5058;SDS011;2548;52.050;11.036;2022-10-31T04:44:14;8.20;;;7.40;;
5058;SDS011;2548;52.050;11.036;2022-10-31T04:46:42;10.23;;;7.55;;
5058;SDS011;2548;52.050;11.036;2022-10-31T04:49:11;8.73;;;7.70;;
5058;SDS011;2548;52.050;11.036;2022-10-31T04:51:39;19.48;;;8.82;;
5058;SDS011;2548;52.050;11.036;2022-10-31T04:54:08;12.80;;;8.20;;
5058;SDS011;2548;52.050;11.036;2022-10-31T04:56:53;14.20;;;8.45;;
5058;SDS011;2548;52.050;11.036;2022-10-31T04:59:22;18.23;;;9.18;;
5058;SDS011;2548;52.050;11.036;2022-10-31T05:01:52;12.73;;;8.55;;
5058;SDS011;2548;52.050;11.036;2022-10-31T05:04:38;17.05;;;8.95;;
5058;SDS011;2548;52.050;11.036;2022-10-31T05:07:08;11.40;;;8.57;;
5058;SDS011;2548;52.050;11.036;2022-10-31T05:09:35;13.60;;;8.68;;
5058;SDS011;2548;52.050;11.036;2022-10-31T05:12:02;12.07;;;8.80;;
5058;SDS011;2548;52.050;11.036;2022-10-31T05:14:49;17.65;;;11.60;;
5058;SDS011;2548;52.050;11.036;2022-10-31T05:17:35;26.63;;;11.60;;
5058;SDS011;2548;52.050;11.036;2022-10-31T05:20:29;17.42;;;11.48;;
5058;SDS011;2548;52.050;11.036;2022-10-31T05:23:21;22.45;;;11.10;;
5058;SDS011;2548;52.050;11.036;2022-10-31T05:25:49;17.02;;;10.48;;
5058;SDS011;2548;52.050;11.036;2022-10-31T05:28:17;15.02;;;10.00;;
5058;SDS011;2548;52.050;11.036;2022-10-31T05:30:44;15.45;;;10.20;;
5058;SDS011;2548;52.050;11.036;2022-10-31T05:33:14;18.48;;;10.30;;
5058;SDS011;2548;52.050;11.036;2022-10-31T05:36:00;22.65;;;10.40;;
5058;SDS011;2548;52.050;11.036;2022-10-31T05:38:35;14.65;;;10.55;;
5058;SDS011;2548;52.050;11.036;2022-10-31T05:41:20;17.20;;;10.00;;
5058;SDS011;2548;52.050;11.036;2022-10-31T05:43:47;24.88;;;13.07;;
5058;SDS011;2548;52.050;11.036;2022-10-31T05:46:18;28.73;;;12.55;;
5058;SDS011;2548;52.050;11.036;2022-10-31T05:49:04;22.77;;;9.73;;
5058;SDS011;2548;52.050;11.036;2022-10-31T05:51:50;24.23;;;11.15;;
5058;SDS011;2548;52.050;11.036;2022-10-31T05:54:21;21.92;;;11.73;;
5058;SDS011;2548;52.050;11.036;2022-10-31T05:56:48;22.92;;;10.63;;
5058;SDS011;2548;52.050;11.036;2022-10-31T05:59:17;21.92;;;10.40;;
5058;SDS011;2548;52.050;11.036;2022-10-31T06:01:45;24.85;;;14.70;;
5058;SDS011;2548;52.050;11.036;2022-10-31T06:04:25;35.85;;;15.55;;
5058;SDS011;2548;52.050;11.036;2022-10-31T06:06:53;45.53;;;18.13;;
5058;SDS011;2548;52.050;11.036;2022-10-31T06:09:23;33.08;;;17.88;;
5058;SDS011;2548;52.050;11.036;2022-10-31T06:11:50;24.73;;;14.55;;
5058;SDS011;2548;52.050;11.036;2022-10-31T06:14:41;31.95;;;15.73;;
5058;SDS011;2548;52.050;11.036;2022-10-31T06:17:08;38.78;;;19.73;;
5058;SDS011;2548;52.050;11.036;2022-10-31T06:20:05;39.33;;;22.08;;
5058;SDS011;2548;52.050;11.036;2022-10-31T06:22:39;46.38;;;22.95;;
5058;SDS011;2548;52.050;11.036;2022-10-31T06:25:08;60.35;;;33.03;;
5058;SDS011;2548;52.050;11.036;2022-10-31T06:27:38;66.70;;;34.20;;
5058;SDS011;2548;52.050;11.036;2022-10-31T06:30:12;75.93;;;39.90;;
5058;SDS011;2548;52.050;11.036;2022-10-31T06:32:40;67.75;;;35.83;;
5058;SDS011;2548;52.050;11.036;2022-10-31T06:35:08;72.22;;;39.00;;
5058;SDS011;2548;52.050;11.036;2022-10-31T06:37:36;85.70;;;46.95;;
5058;SDS011;2548;52.050;11.036;2022-10-31T06:40:28;70.03;;;36.22;;
5058;SDS011;2548;52.050;11.036;2022-10-31T06:43:09;76.13;;;38.03;;
5058;SDS011;2548;52.050;11.036;2022-10-31T06:45:37;64.97;;;32.75;;
5058;SDS011;2548;52.050;11.036;2022-10-31T06:48:23;68.32;;;30.35;;
5058;SDS011;2548;52.050;11.036;2022-10-31T06:51:13;78.72;;;38.33;;
5058;SDS011;2548;52.050;11.036;2022-10-31T06:53:41;53.45;;;30.90;;
5058;SDS011;2548;52.050;11.036;2022-10-31T06:56:12;65.97;;;32.50;;
5058;SDS011;2548;52.050;11.036;2022-10-31T06:58:44;65.65;;;33.97;;
5058;SDS011;2548;52.050;11.036;2022-10-31T07:01:13;73.45;;;36.20;;
5058;SDS011;2548;52.050;11.036;2022-10-31T07:03:40;95.38;;;42.17;;
5058;SDS011;2548;52.050;11.036;2022-10-31T07:06:08;61.20;;;36.63;;
5058;SDS011;2548;52.050;11.036;2022-10-31T07:08:36;84.97;;;39.53;;
5058;SDS011;2548;52.050;11.036;2022-10-31T07:11:04;69.50;;;36.17;;
5058;SDS011;2548;52.050;11.036;2022-10-31T07:13:34;83.22;;;37.22;;
5058;SDS011;2548;52.050;11.036;2022-10-31T07:16:05;83.50;;;35.75;;
5058;SDS011;2548;52.050;11.036;2022-10-31T07:18:35;84.53;;;36.63;;
5058;SDS011;2548;52.050;11.036;2022-10-31T07:21:02;81.38;;;36.75;;
5058;SDS011;2548;52.050;11.036;2022-10-31T07:23:30;70.18;;;36.20;;
5058;SDS011;2548;52.050;11.036;2022-10-31T07:26:33;75.72;;;33.20;;
5058;SDS011;2548;52.050;11.036;2022-10-31T07:29:03;64.30;;;32.55;;
5058;SDS011;2548;52.050;11.036;2022-10-31T07:31:30;74.68;;;31.63;;
5058;SDS011;2548;52.050;11.036;2022-10-31T07:34:03;56.90;;;31.95;;
5058;SDS011;2548;52.050;11.036;2022-10-31T07:36:50;72.50;;;31.52;;
5058;SDS011;2548;52.050;11.036;2022-10-31T07:39:18;69.13;;;31.52;;
5058;SDS011;2548;52.050;11.036;2022-10-31T07:41:46;61.88;;;31.58;;
5058;SDS011;2548;52.050;11.036;2022-10-31T07:44:18;71.82;;;31.50;;
5058;SDS011;2548;52.050;11.036;2022-10-31T07:47:04;66.00;;;33.42;;
5058;SDS011;2548;52.050;11.036;2022-10-31T07:49:50;57.60;;;32.25;;
5058;SDS011;2548;52.050;11.036;2022-10-31T07:52:36;57.15;;;29.08;;
5058;SDS011;2548;52.050;11.036;2022-10-31T07:55:22;73.85;;;31.13;;
5058;SDS011;2548;52.050;11.036;2022-10-31T07:57:54;55.58;;;27.27;;
5058;SDS011;2548;52.050;11.036;2022-10-31T08:00:24;45.33;;;25.90;;
5058;SDS011;2548;52.050;11.036;2022-10-31T08:03:02;51.40;;;26.58;;
5058;SDS011;2548;52.050;11.036;2022-10-31T08:06:00;43.05;;;24.15;;
5058;SDS011;2548;52.050;11.036;2022-10-31T08:09:03;46.13;;;26.25;;
5058;SDS011;2548;52.050;11.036;2022-10-31T08:11:31;47.50;;;24.83;;
5058;SDS011;2548;52.050;11.036;2022-10-31T08:14:00;47.65;;;23.73;;
5058;SDS011;2548;52.050;11.036;2022-10-31T08:16:29;45.08;;;23.95;;
5058;SDS011;2548;52.050;11.036;2022-10-31T08:19:00;47.58;;;24.88;;
5058;SDS011;2548;52.050;11.036;2022-10-31T08:21:29;45.17;;;25.00;;
5058;SDS011;2548;52.050;11.036;2022-10-31T08:23:57;46.95;;;26.30;;
5058;SDS011;2548;52.050;11.036;2022-10-31T08:26:25;61.30;;;28.55;;
5058;SDS011;2548;52.050;11.036;2022-10-31T08:28:54;62.75;;;28.98;;
5058;SDS011;2548;52.050;11.036;2022-10-31T08:31:25;58.10;;;32.47;;
5058;SDS011;2548;52.050;11.036;2022-10-31T08:34:14;57.10;;;32.30;;
5058;SDS011;2548;52.050;11.036;2022-10-31T08:36:41;69.65;;;32.78;;
5058;SDS011;2548;52.050;11.036;2022-10-31T08:39:20;56.00;;;31.02;;
5058;SDS011;2548;52.050;11.036;2022-10-31T08:41:47;66.20;;;33.50;;
5058;SDS011;2548;52.050;11.036;2022-10-31T08:44:14;63.75;;;33.05;;
5058;SDS011;2548;52.050;11.036;2022-10-31T08:46:43;64.38;;;32.28;;
5058;SDS011;2548;52.050;11.036;2022-10-31T08:49:10;68.70;;;36.03;;
5058;SDS011;2548;52.050;11.036;2022-10-31T08:51:41;76.80;;;36.05;;
5058;SDS011;2548;52.050;11.036;2022-10-31T08:54:08;73.85;;;35.65;;
5058;SDS011;2548;52.050;11.036;2022-10-31T08:56:54;71.90;;;36.97;;
5058;SDS011;2548;52.050;11.036;2022-10-31T08:59:48;68.65;;;35.78;;
5058;SDS011;2548;52.050;11.036;2022-10-31T09:02:29;76.93;;;38.13;;
5058;SDS011;2548;52.050;11.036;2022-10-31T09:04:59;72.95;;;39.70;;
5058;SDS011;2548;52.050;11.036;2022-10-31T09:07:28;74.90;;;38.75;;
5058;SDS011;2548;52.050;11.036;2022-10-31T09:09:55;73.00;;;38.45;;
5058;SDS011;2548;52.050;11.036;2022-10-31T09:12:23;89.20;;;38.92;;
5058;SDS011;2548;52.050;11.036;2022-10-31T09:15:09;69.68;;;38.10;;
5058;SDS011;2548;52.050;11.036;2022-10-31T09:17:45;68.75;;;37.85;;
5058;SDS011;2548;52.050;11.036;2022-10-31T09:20:34;76.53;;;39.40;;
5058;SDS011;2548;52.050;11.036;2022-10-31T09:23:05;80.53;;;41.13;;
5058;SDS011;2548;52.050;11.036;2022-10-31T09:25:36;65.47;;;38.08;;
5058;SDS011;2548;52.050;11.036;2022-10-31T09:28:23;76.57;;;40.70;;
5058;SDS011;2548;52.050;11.036;2022-10-31T09:30:53;81.25;;;42.72;;
5058;SDS011;2548;52.050;11.036;2022-10-31T09:33:40;78.63;;;41.15;;
5058;SDS011;2548;52.050;11.036;2022-10-31T09:36:31;75.22;;;39.80;;
5058;SDS011;2548;52.050;11.036;2022-10-31T09:38:59;80.20;;;42.25;;
5058;SDS011;2548;52.050;11.036;2022-10-31T09:41:28;76.35;;;42.20;;
5058;SDS011;2548;52.050;11.036;2022-10-31T09:44:17;74.65;;;40.17;;
5058;SDS011;2548;52.050;11.036;2022-10-31T09:46:51;68.82;;;38.83;;
5058;SDS011;2548;52.050;11.036;2022-10-31T09:49:34;74.93;;;39.30;;
5058;SDS011;2548;52.050;11.036;2022-10-31T09:52:11;73.10;;;39.20;;
5058;SDS011;2548;52.050;11.036;2022-10-31T09:54:47;85.20;;;40.38;;
5058;SDS011;2548;52.050;11.036;2022-10-31T09:57:22;162.07;;;73.22;;
5058;SDS011;2548;52.050;11.036;2022-10-31T09:59:54;92.05;;;45.50;;
5058;SDS011;2548;52.050;11.036;2022-10-31T10:02:23;91.25;;;46.63;;
5058;SDS011;2548;52.050;11.036;2022-10-31T10:04:56;77.80;;;39.33;;
5058;SDS011;2548;52.050;11.036;2022-10-31T10:07:29;74.57;;;38.35;;
5058;SDS011;2548;52.050;11.036;2022-10-31T10:10:22;72.45;;;37.60;;
5058;SDS011;2548;52.050;11.036;2022-10-31T10:13:19;70.10;;;36.90;;
5058;SDS011;2548;52.050;11.036;2022-10-31T10:16:14;71.20;;;36.85;;
5058;SDS011;2548;52.050;11.036;2022-10-31T10:18:55;76.53;;;39.13;;
5058;SDS011;2548;52.050;11.036;2022-10-31T10:21:32;60.92;;;33.65;;
5058;SDS011;2548;52.050;11.036;2022-10-31T10:24:11;73.80;;;32.75;;
5058;SDS011;2548;52.050;11.036;2022-10-31T10:26:53;63.25;;;32.25;;
5058;SDS011;2548;52.050;11.036;2022-10-31T10:29:32;56.60;;;28.80;;
5058;SDS011;2548;52.050;11.036;2022-10-31T10:32:03;49.08;;;26.83;;
5058;SDS011;2548;52.050;11.036;2022-10-31T10:34:43;49.55;;;27.02;;
5058;SDS011;2548;52.050;11.036;2022-10-31T10:37:20;44.88;;;27.00;;
5058;SDS011;2548;52.050;11.036;2022-10-31T10:39:52;71.45;;;30.15;;
5058;SDS011;2548;52.050;11.036;2022-10-31T10:42:25;47.70;;;25.42;;
5058;SDS011;2548;52.050;11.036;2022-10-31T10:45:15;52.90;;;28.20;;
5058;SDS011;2548;52.050;11.036;2022-10-31T10:48:05;43.63;;;24.60;;
5058;SDS011;2548;52.050;11.036;2022-10-31T10:50:39;41.63;;;24.45;;
5058;SDS011;2548;52.050;11.036;2022-10-31T10:53:14;42.28;;;23.55;;
5058;SDS011;2548;52.050;11.036;2022-10-31T10:55:59;35.83;;;20.90;;
5058;SDS011;2548;52.050;11.036;2022-10-31T10:58:37;37.40;;;21.90;;
5058;SDS011;2548;52.050;11.036;2022-10-31T11:01:08;36.87;;;22.80;;
5058;SDS011;2548;52.050;11.036;2022-10-31T11:03:38;44.15;;;22.30;;
5058;SDS011;2548;52.050;11.036;2022-10-31T11:06:15;41.45;;;23.17;;
5058;SDS011;2548;52.050;11.036;2022-10-31T11:08:47;49.35;;;22.70;;
5058;SDS011;2548;52.050;11.036;2022-10-31T11:11:19;35.05;;;23.55;;
5058;SDS011;2548;52.050;11.036;2022-10-31T11:13:54;44.33;;;23.80;;
5058;SDS011;2548;52.050;11.036;2022-10-31T11:16:30;41.60;;;20.95;;
5058;SDS011;2548;52.050;11.036;2022-10-31T11:19:07;32.70;;;21.23;;
5058;SDS011;2548;52.050;11.036;2022-10-31T11:21:40;45.13;;;22.58;;
5058;SDS011;2548;52.050;11.036;2022-10-31T11:24:12;43.33;;;24.70;;
5058;SDS011;2548;52.050;11.036;2022-10-31T11:26:43;36.50;;;22.93;;
5058;SDS011;2548;52.050;11.036;2022-10-31T11:29:16;36.83;;;22.17;;
5058;SDS011;2548;52.050;11.036;2022-10-31T11:31:47;44.85;;;24.35;;
5058;SDS011;2548;52.050;11.036;2022-10-31T11:34:26;38.33;;;22.90;;
5058;SDS011;2548;52.050;11.036;2022-10-31T11:36:59;34.72;;;21.42;;
5058;SDS011;2548;52.050;11.036;2022-10-31T11:39:30;36.08;;;21.73;;
5058;SDS011;2548;52.050;11.036;2022-10-31T11:42:00;31.63;;;19.80;;
5058;SDS011;2548;52.050;11.036;2022-10-31T11:44:30;39.47;;;23.50;;
5058;SDS011;2548;52.050;11.036;2022-10-31T11:46:59;43.58;;;22.60;;
5058;SDS011;2548;52.050;11.036;2022-10-31T11:49:29;35.03;;;21.63;;
5058;SDS011;2548;52.050;11.036;2022-10-31T11:52:01;43.77;;;24.83;;
5058;SDS011;2548;52.050;11.036;2022-10-31T11:54:33;41.23;;;23.57;;
5058;SDS011;2548;52.050;11.036;2022-10-31T11:57:19;40.58;;;21.77;;
5058;SDS011;2548;52.050;11.036;2022-10-31T11:59:55;49.60;;;22.52;;
5058;SDS011;2548;52.050;11.036;2022-10-31T12:02:23;38.77;;;21.97;;
5058;SDS011;2548;52.050;11.036;2022-10-31T12:04:54;32.63;;;20.83;;
5058;SDS011;2548;52.050;11.036;2022-10-31T12:07:26;43.10;;;23.17;;
5058;SDS011;2548;52.050;11.036;2022-10-31T12:09:54;44.60;;;24.03;;
5058;SDS011;2548;52.050;11.036;2022-10-31T12:12:25;32.70;;;21.40;;
5058;SDS011;2548;52.050;11.036;2022-10-31T12:15:18;44.60;;;22.17;;
5058;SDS011;2548;52.050;11.036;2022-10-31T12:18:00;36.23;;;21.43;;
5058;SDS011;2548;52.050;11.036;2022-10-31T12:20:55;39.90;;;19.75;;
5058;SDS011;2548;52.050;11.036;2022-10-31T12:23:33;24.73;;;17.60;;
5058;SDS011;2548;52.050;11.036;2022-10-31T12:26:13;33.50;;;20.48;;
5058;SDS011;2548;52.050;11.036;2022-10-31T12:28:52;38.13;;;20.17;;
5058;SDS011;2548;52.050;11.036;2022-10-31T12:31:34;39.80;;;20.38;;
5058;SDS011;2548;52.050;11.036;2022-10-31T12:34:18;39.22;;;22.48;;
5058;SDS011;2548;52.050;11.036;2022-10-31T12:37:14;52.58;;;23.70;;
5058;SDS011;2548;52.050;11.036;2022-10-31T12:39:50;39.88;;;22.40;;
5058;SDS011;2548;52.050;11.036;2022-10-31T12:42:39;45.67;;;23.83;;
5058;SDS011;2548;52.050;11.036;2022-10-31T12:45:25;44.53;;;25.87;;
5058;SDS011;2548;52.050;11.036;2022-10-31T12:48:08;47.88;;;27.92;;
5058;SDS011;2548;52.050;11.036;2022-10-31T12:51:05;58.13;;;31.65;;
5058;SDS011;2548;52.050;11.036;2022-10-31T12:53:44;63.20;;;35.57;;
5058;SDS011;2548;52.050;11.036;2022-10-31T12:56:27;60.92;;;33.70;;
5058;SDS011;2548;52.050;11.036;2022-10-31T12:59:08;73.20;;;35.80;;
5058;SDS011;2548;52.050;11.036;2022-10-31T13:01:42;62.90;;;35.50;;
5058;SDS011;2548;52.050;11.036;2022-10-31T13:04:18;70.90;;;35.42;;
5058;SDS011;2548;52.050;11.036;2022-10-31T13:07:00;71.50;;;35.42;;
5058;SDS011;2548;52.050;11.036;2022-10-31T13:09:33;79.40;;;37.30;;
5058;SDS011;2548;52.050;11.036;2022-10-31T13:12:08;74.22;;;36.22;;
5058;SDS011;2548;52.050;11.036;2022-10-31T13:14:38;70.28;;;36.20;;
5058;SDS011;2548;52.050;11.036;2022-10-31T13:17:08;68.45;;;37.65;;
5058;SDS011;2548;52.050;11.036;2022-10-31T13:19:43;75.28;;;37.15;;
5058;SDS011;2548;52.050;11.036;2022-10-31T13:22:14;79.03;;;38.50;;
5058;SDS011;2548;52.050;11.036;2022-10-31T13:24:47;67.38;;;37.63;;
5058;SDS011;2548;52.050;11.036;2022-10-31T13:27:21;67.07;;;35.92;;
5058;SDS011;2548;52.050;11.036;2022-10-31T13:29:54;75.00;;;36.70;;
5058;SDS011;2548;52.050;11.036;2022-10-31T13:32:28;79.15;;;37.80;;
5058;SDS011;2548;52.050;11.036;2022-10-31T13:35:04;75.95;;;38.28;;
5058;SDS011;2548;52.050;11.036;2022-10-31T13:37:40;69.90;;;38.20;;
5058;SDS011;2548;52.050;11.036;2022-10-31T13:40:12;81.60;;;40.75;;
5058;SDS011;2548;52.050;11.036;2022-10-31T13:42:53;88.80;;;41.47;;
5058;SDS011;2548;52.050;11.036;2022-10-31T13:45:25;78.15;;;39.30;;
5058;SDS011;2548;52.050;11.036;2022-10-31T13:47:58;81.45;;;41.78;;
5058;SDS011;2548;52.050;11.036;2022-10-31T13:50:27;81.07;;;40.28;;
5058;SDS011;2548;52.050;11.036;2022-10-31T13:53:18;96.10;;;40.50;;
5058;SDS011;2548;52.050;11.036;2022-10-31T13:55:48;89.85;;;40.15;;
5058;SDS011;2548;52.050;11.036;2022-10-31T13:58:23;88.32;;;41.83;;
5058;SDS011;2548;52.050;11.036;2022-10-31T14:01:12;99.82;;;43.60;;
5058;SDS011;2548;52.050;11.036;2022-10-31T14:03:43;92.88;;;42.40;;
5058;SDS011;2548;52.050;11.036;2022-10-31T14:06:14;107.45;;;45.45;;
5058;SDS011;2548;52.050;11.036;2022-10-31T14:08:46;91.85;;;43.63;;
5058;SDS011;2548;52.050;11.036;2022-10-31T14:11:19;106.13;;;46.45;;
5058;SDS011;2548;52.050;11.036;2022-10-31T14:13:52;110.70;;;47.83;;
5058;SDS011;2548;52.050;11.036;2022-10-31T14:16:23;121.50;;;52.03;;
5058;SDS011;2548;52.050;11.036;2022-10-31T14:18:56;119.13;;;51.75;;
5058;SDS011;2548;52.050;11.036;2022-10-31T14:21:28;123.88;;;50.67;;
5058;SDS011;2548;52.050;11.036;2022-10-31T14:23:57;115.88;;;49.22;;
5058;SDS011;2548;52.050;11.036;2022-10-31T14:26:33;113.55;;;47.40;;
5058;SDS011;2548;52.050;11.036;2022-10-31T14:29:20;106.78;;;44.97;;
5058;SDS011;2548;52.050;11.036;2022-10-31T14:31:57;115.35;;;46.67;;
5058;SDS011;2548;52.050;11.036;2022-10-31T14:34:33;107.80;;;45.90;;
5058;SDS011;2548;52.050;11.036;2022-10-31T14:46:02;106.43;;;47.72;;
5058;SDS011;2548;52.050;11.036;2022-10-31T14:48:39;103.30;;;48.40;;
5058;SDS011;2548;52.050;11.036;2022-10-31T14:51:24;125.38;;;52.65;;
5058;SDS011;2548;52.050;11.036;2022-10-31T14:53:57;134.18;;;55.40;;
5058;SDS011;2548;52.050;11.036;2022-10-31T14:56:27;122.47;;;54.38;;
5058;SDS011;2548;52.050;11.036;2022-10-31T14:58:57;140.75;;;55.08;;
5058;SDS011;2548;52.050;11.036;2022-10-31T15:01:27;128.48;;;53.78;;
5058;SDS011;2548;52.050;11.036;2022-10-31T15:03:57;143.70;;;53.75;;
5058;SDS011;2548;52.050;11.036;2022-10-31T15:06:30;125.45;;;51.92;;
5058;SDS011;2548;52.050;11.036;2022-10-31T15:09:21;131.63;;;51.67;;
5058;SDS011;2548;52.050;11.036;2022-10-31T15:11:49;130.80;;;54.45;;
5058;SDS011;2548;52.050;11.036;2022-10-31T15:14:22;217.93;;;91.38;;
5058;SDS011;2548;52.050;11.036;2022-10-31T15:16:50;184.10;;;84.18;;
5058;SDS011;2548;52.050;11.036;2022-10-31T15:19:20;170.18;;;70.57;;
5058;SDS011;2548;52.050;11.036;2022-10-31T15:21:50;169.52;;;76.47;;
5058;SDS011;2548;52.050;11.036;2022-10-31T15:24:22;157.77;;;66.60;;
5058;SDS011;2548;52.050;11.036;2022-10-31T15:26:51;173.63;;;82.13;;
5058;SDS011;2548;52.050;11.036;2022-10-31T15:29:21;142.73;;;65.70;;
5058;SDS011;2548;52.050;11.036;2022-10-31T15:31:50;127.97;;;56.72;;